createdAt,value
2023-04-15T00:06:00.179Z,9.79
2023-04-15T00:16:09.175Z,9.56
2023-04-15T00:26:13.621Z,9.47
2023-04-15T00:36:15.813Z,9.37
2023-04-15T00:46:20.842Z,9.12
2023-04-15T00:56:24.629Z,9.01
2023-04-15T01:06:32.533Z,8.81
2023-04-15T01:16:34.658Z,8.84
2023-04-15T01:26:38.865Z,8.80
2023-04-15T01:36:42.193Z,8.61
2023-04-15T01:46:44.126Z,8.45
2023-04-15T01:56:46.020Z,8.30
2023-04-15T02:06:47.973Z,8.16
2023-04-15T02:16:49.920Z,8.08
2023-04-15T02:26:58.582Z,8.06
2023-04-15T02:37:00.745Z,8.08
2023-04-15T02:47:03.741Z,8.09
2023-04-15T02:57:07.055Z,8.07
2023-04-15T03:07:09.975Z,8.07
2023-04-15T03:17:11.857Z,8.23
2023-04-15T03:27:14.018Z,8.26
2023-04-15T03:37:15.875Z,8.30
2023-04-15T03:47:17.720Z,8.32
2023-04-15T03:57:19.597Z,8.47
2023-04-15T04:07:24.274Z,8.49
2023-04-15T04:17:26.339Z,8.43
2023-04-15T04:27:30.228Z,8.40
2023-04-15T04:37:32.189Z,8.42
2023-04-15T04:47:38.141Z,8.46
2023-04-15T04:57:40.037Z,8.47
2023-04-15T05:07:42.358Z,8.50
2023-04-15T05:17:44.955Z,8.49
2023-04-15T05:27:47.048Z,8.51
2023-04-15T05:37:48.974Z,8.55
2023-04-15T05:47:53.963Z,8.58
2023-04-15T05:57:56.111Z,8.45
2023-04-15T06:07:58.068Z,8.37
2023-04-15T06:18:00.198Z,8.41
2023-04-15T06:28:02.154Z,8.41
2023-04-15T06:38:04.118Z,8.46
2023-04-15T06:48:23.477Z,8.43
2023-04-15T06:58:34.280Z,8.45
2023-04-15T07:08:37.346Z,8.45
2023-04-15T07:18:39.357Z,8.48
2023-04-15T07:28:41.817Z,8.50
2023-04-15T07:38:43.758Z,8.54
2023-04-15T07:48:48.794Z,8.72
2023-04-15T07:58:52.777Z,8.82
2023-04-15T08:08:57.228Z,8.82
2023-04-15T08:18:59.271Z,8.84
2023-04-15T08:29:03.449Z,8.90
2023-04-15T08:39:05.590Z,8.98
2023-04-15T08:49:11.104Z,9.06
2023-04-15T08:59:15.176Z,9.10
2023-04-15T09:09:23.221Z,9.30
2023-04-15T09:19:33.900Z,9.31
2023-04-15T09:29:37.453Z,9.28
2023-04-15T09:39:50.299Z,9.32
2023-04-15T09:49:59.501Z,9.27
2023-04-15T10:00:08.480Z,9.33
2023-04-15T10:10:11.861Z,9.21
2023-04-15T10:20:30.260Z,9.37
2023-04-15T10:30:34.015Z,9.47
2023-04-15T10:40:40.177Z,9.61
2023-04-15T10:50:56.089Z,9.59
2023-04-15T11:01:02.980Z,9.57
2023-04-15T11:11:14.205Z,9.67
2023-04-15T11:21:16.708Z,9.84
2023-04-15T11:31:20.384Z,9.90
2023-04-15T11:41:23.901Z,9.93
2023-04-15T11:51:42.838Z,10.14
2023-04-15T12:01:47.847Z,10.25
2023-04-15T12:12:19.041Z,10.45
2023-04-15T12:22:22.459Z,10.14
2023-04-15T12:32:28.635Z,9.95
2023-04-15T12:42:30.592Z,10.17
2023-04-15T12:52:41.445Z,10.37
2023-04-15T13:02:44.879Z,10.58
2023-04-15T13:13:03.395Z,10.66
2023-04-15T13:23:05.298Z,11.15
2023-04-15T13:33:07.367Z,11.16
2023-04-15T13:43:15.254Z,11.33
2023-04-15T13:53:17.332Z,11.08
2023-04-15T14:03:19.385Z,10.95
2023-04-15T14:13:21.593Z,11.05
2023-04-15T14:23:24.022Z,11.31
2023-04-15T14:33:26.257Z,11.16
2023-04-15T14:43:28.299Z,11.34
2023-04-15T14:53:38.900Z,11.31
2023-04-15T15:04:18.526Z,11.07
2023-04-15T15:14:22.336Z,11.32
2023-04-15T15:24:27.355Z,11.45
2023-04-15T15:34:29.392Z,11.17
2023-04-15T15:44:38.605Z,11.14
2023-04-15T15:54:41.480Z,11.23
2023-04-15T16:04:43.887Z,11.11
2023-04-15T16:15:07.705Z,10.98
2023-04-15T16:25:11.058Z,10.75
2023-04-15T16:35:22.270Z,10.75
2023-04-15T16:45:24.874Z,10.64
2023-04-15T16:55:27.290Z,10.34
2023-04-15T17:05:54.938Z,10.20
2023-04-15T17:16:02.992Z,10.09
2023-04-15T17:26:15.762Z,9.92
2023-04-15T17:36:18.596Z,9.81
2023-04-15T17:46:25.170Z,9.70
2023-04-15T17:56:29.474Z,9.67
2023-04-15T18:06:36.128Z,9.63
2023-04-15T18:16:50.888Z,9.68
2023-04-15T18:26:54.021Z,9.60
2023-04-15T18:37:00.935Z,9.56
2023-04-15T18:47:06.780Z,9.40
2023-04-15T18:57:09.388Z,9.23
2023-04-15T19:07:13.953Z,9.19
2023-04-15T19:17:19.243Z,9.25
2023-04-15T19:27:25.485Z,9.23
2023-04-15T19:37:36.991Z,9.11
2023-04-15T19:47:48.793Z,9.23
2023-04-15T19:57:57.311Z,9.20
2023-04-15T20:08:02.083Z,9.02
2023-04-15T20:18:06.255Z,9.01
2023-04-15T20:28:08.678Z,9.02
2023-04-15T20:38:11.276Z,8.71
2023-04-15T20:48:16.953Z,8.49
2023-04-15T20:58:21.415Z,8.53
2023-04-15T21:08:29.522Z,8.36
2023-04-15T21:18:32.927Z,8.31
2023-04-15T21:28:35.271Z,8.26
2023-04-15T21:38:37.165Z,8.30
2023-04-15T21:48:40.357Z,8.19
2023-04-15T21:58:42.241Z,8.18
2023-04-15T22:08:55.327Z,8.15
2023-04-15T22:18:59.303Z,8.09
2023-04-15T22:29:02.225Z,8.13
2023-04-15T22:39:04.819Z,8.11
2023-04-15T22:49:10.494Z,8.09
2023-04-15T22:59:12.379Z,8.05
2023-04-15T23:09:14.349Z,8.00
2023-04-15T23:19:16.543Z,7.95
2023-04-15T23:29:18.544Z,7.92
2023-04-15T23:39:20.976Z,7.87
2023-04-15T23:49:22.920Z,7.87
2023-04-15T23:59:24.832Z,7.85
